Time;durP1;ratioP1;P1;durP2;ratioP2;P2;SDS_P1;SDS_P2;PMS_P1;PMS_P2;Temp;Humidity;BMP_temperature;BMP_pressure;BME280_temperature;BME280_humidity;BME280_pressure;Samples;Min_cycle;Max_cycle;Signal;HPM_P1;HPM_P2
2022/01/18 00:00:55;;;;;;;11.85;2.20;;;2.20;93.20;;;;;;5059920;28;20086;-71
2022/01/18 00:03:22;;;;;;;12.65;2.92;;;2.20;93.10;;;;;;5081362;28;20044;-71
2022/01/18 00:05:50;;;;;;;21.42;3.95;;;2.30;93.20;;;;;;5061146;28;20031;-71
2022/01/18 00:08:17;;;;;;;23.42;3.15;;;2.20;93.10;;;;;;5071753;28;20044;-71
2022/01/18 00:10:44;;;;;;;11.43;2.40;;;2.30;93.20;;;;;;5064453;28;20136;-71
2022/01/18 00:13:35;;;;;;;13.15;2.35;;;2.30;93.20;;;;;;5064295;28;20123;-71
2022/01/18 00:18:31;;;;;;;19.33;3.58;;;2.20;93.10;;;;;;5056112;28;20402;-71
2022/01/18 00:23:26;;;;;;;12.30;2.30;;;2.20;93.10;;;;;;5063666;28;20067;-71
2022/01/18 00:25:56;;;;;;;14.50;2.47;;;2.20;93.10;;;;;;5054016;28;20021;-71
2022/01/18 00:28:23;;;;;;;14.68;3.53;;;2.20;93.10;;;;;;5058900;28;20052;-71
2022/01/18 00:33:50;;;;;;;17.88;3.85;;;2.20;93.00;;;;;;5052525;28;20086;-71
2022/01/18 00:39:10;;;;;;;13.90;3.08;;;2.10;93.10;;;;;;5048826;28;20048;-71
2022/01/18 00:41:37;;;;;;;8.55;2.55;;;2.10;93.10;;;;;;5056336;28;20143;-70
2022/01/18 00:44:04;;;;;;;9.73;2.75;;;2.10;93.10;;;;;;5052193;28;20134;-71
2022/01/18 00:46:30;;;;;;;14.73;2.92;;;2.10;93.00;;;;;;5052919;28;20036;-71
2022/01/18 00:49:00;;;;;;;11.07;2.53;;;2.00;93.00;;;;;;5054229;28;20169;-71
2022/01/18 00:51:25;;;;;;;16.00;2.85;;;1.90;93.10;;;;;;5052263;28;20067;-71
2022/01/18 00:53:51;;;;;;;11.32;2.50;;;2.00;93.20;;;;;;5048308;28;20452;-71
2022/01/18 00:56:26;;;;;;;21.88;4.10;;;2.00;93.20;;;;;;5055637;28;20028;-71
2022/01/18 00:58:53;;;;;;;13.45;2.47;;;2.00;93.30;;;;;;5055215;28;20064;-71
2022/01/18 01:01:23;;;;;;;10.45;2.58;;;2.00;93.20;;;;;;5048703;28;20044;-71
2022/01/18 01:03:50;;;;;;;11.07;2.90;;;2.00;93.30;;;;;;5054778;28;20039;-71
2022/01/18 01:06:16;;;;;;;28.40;4.03;;;2.00;93.30;;;;;;5049227;28;20025;-71
2022/01/18 01:08:42;;;;;;;19.27;3.15;;;2.10;93.40;;;;;;5060819;28;20488;-71
2022/01/18 01:11:10;;;;;;;20.38;4.05;;;2.10;93.50;;;;;;5054343;28;20032;-71
2022/01/18 01:13:38;;;;;;;20.40;3.88;;;2.10;93.50;;;;;;5053704;28;20037;-71
2022/01/18 01:19:45;;;;;;;14.18;3.13;;;2.10;93.40;;;;;;5053435;28;20064;-71
2022/01/18 01:43:28;;;;;;;12.80;2.00;;;2.10;93.40;;;;;;5052879;28;20037;-71
2022/01/18 01:45:54;;;;;;;13.35;3.47;;;2.10;93.30;;;;;;5049892;28;20032;-71
2022/01/18 01:48:22;;;;;;;19.15;3.25;;;2.00;93.30;;;;;;5052465;28;20079;-71
2022/01/18 01:50:53;;;;;;;10.50;2.58;;;2.00;93.40;;;;;;5049703;28;20028;-71
2022/01/18 01:53:22;;;;;;;12.35;2.17;;;2.00;93.40;;;;;;5070664;28;20536;-71
2022/01/18 01:55:50;;;;;;;16.05;2.65;;;2.00;93.40;;;;;;5058234;28;20028;-71
2022/01/18 01:58:16;;;;;;;11.18;2.30;;;2.00;93.50;;;;;;5051441;28;20060;-71
2022/01/18 02:00:48;;;;;;;16.48;2.88;;;1.90;93.40;;;;;;5047309;28;20041;-71
2022/01/18 02:03:14;;;;;;;12.05;2.35;;;1.90;93.60;;;;;;5068014;28;20064;-71
2022/01/18 02:05:41;;;;;;;14.40;3.03;;;2.00;93.70;;;;;;5054292;28;20024;-71
2022/01/18 02:08:07;;;;;;;14.65;2.47;;;2.00;93.60;;;;;;5058008;28;20039;-71
2022/01/18 02:10:38;;;;;;;15.77;2.72;;;1.90;93.50;;;;;;5051373;28;20048;-71
2022/01/18 02:13:06;;;;;;;18.63;2.90;;;1.90;93.50;;;;;;5051639;28;20036;-71
2022/01/18 02:15:37;;;;;;;16.08;3.13;;;1.90;93.50;;;;;;5044830;28;20033;-71
2022/01/18 02:23:45;;;;;;;13.60;2.67;;;1.90;93.50;;;;;;5036976;28;20516;-71
2022/01/18 02:26:11;;;;;;;13.05;2.72;;;1.90;93.50;;;;;;5053376;28;20036;-71
2022/01/18 02:28:36;;;;;;;11.50;2.60;;;1.90;93.50;;;;;;5050904;28;20032;-71
2022/01/18 02:31:02;;;;;;;14.27;2.47;;;1.90;93.50;;;;;;5046223;28;20028;-71
2022/01/18 02:33:28;;;;;;;12.45;2.75;;;1.80;93.40;;;;;;5054944;28;20034;-71
2022/01/18 02:35:54;;;;;;;18.75;3.03;;;1.80;93.40;;;;;;5050344;28;20094;-71
2022/01/18 02:38:21;;;;;;;10.63;2.50;;;1.80;93.50;;;;;;5048400;28;20842;-71
2022/01/18 02:40:47;;;;;;;15.70;3.53;;;1.80;93.80;;;;;;5052050;28;20028;-71
2022/01/18 02:45:57;;;;;;;14.90;2.35;;;1.80;93.50;;;;;;5052807;28;20162;-70
2022/01/18 02:48:24;;;;;;;9.65;2.42;;;1.80;93.90;;;;;;5050168;28;20036;-70
2022/01/18 02:50:50;;;;;;;14.13;2.67;;;1.80;93.70;;;;;;5055285;28;20031;-71
2022/01/18 02:53:18;;;;;;;8.90;2.25;;;1.80;93.60;;;;;;5045825;28;20762;-71
2022/01/18 02:55:54;;;;;;;14.88;3.17;;;1.80;93.60;;;;;;5051867;28;20131;-70
2022/01/18 02:58:33;;;;;;;;;;;1.70;93.50;;;;;;5049668;28;20116;-71
2022/01/18 03:03:32;;;;;;;10.52;2.88;;;1.70;93.50;;;;;;5052850;28;20679;-71
2022/01/18 03:06:00;;;;;;;16.25;3.35;;;1.70;93.50;;;;;;5050189;28;20035;-71
2022/01/18 03:08:26;;;;;;;17.35;2.63;;;1.70;93.40;;;;;;5046972;28;20873;-71
2022/01/18 03:10:51;;;;;;;15.88;2.83;;;1.60;93.50;;;;;;5053598;28;20074;-71
2022/01/18 03:13:18;;;;;;;10.38;2.97;;;1.70;93.60;;;;;;5046752;28;20377;-71
2022/01/18 03:15:44;;;;;;;10.80;2.28;;;1.70;93.60;;;;;;5057435;28;20098;-71
2022/01/18 03:18:10;;;;;;;10.43;2.20;;;1.70;93.50;;;;;;5034334;28;20508;-71
2022/01/18 03:20:37;;;;;;;14.90;2.40;;;1.80;93.50;;;;;;5057394;28;20125;-71
2022/01/18 03:23:10;;;;;;;12.40;2.40;;;1.80;93.40;;;;;;5045258;28;20032;-71
2022/01/18 03:28:05;;;;;;;12.63;2.58;;;1.90;92.90;;;;;;5045481;28;20147;-71
2022/01/18 03:30:42;;;;;;;10.95;2.05;;;1.90;92.80;;;;;;5057929;28;20157;-71
2022/01/18 03:33:17;;;;;;;17.30;2.92;;;1.80;92.80;;;;;;5052155;28;20111;-71
2022/01/18 03:35:44;;;;;;;12.18;2.67;;;1.80;92.70;;;;;;5047802;28;20112;-71
2022/01/18 03:38:11;;;;;;;11.40;2.38;;;1.80;92.70;;;;;;5048795;28;20032;-71
2022/01/18 03:40:37;;;;;;;10.10;2.13;;;1.70;92.60;;;;;;5050110;28;20050;-71
2022/01/18 03:43:05;;;;;;;6.22;1.85;;;1.70;92.60;;;;;;5062204;28;20028;-70
2022/01/18 03:45:40;;;;;;;11.45;2.47;;;1.70;92.70;;;;;;5054232;28;20106;-71
2022/01/18 03:48:11;;;;;;;7.83;2.17;;;1.70;92.90;;;;;;5060637;28;20059;-71
2022/01/18 03:50:37;;;;;;;10.18;1.90;;;1.70;92.90;;;;;;5053657;28;20043;-71
2022/01/18 03:53:03;;;;;;;10.27;2.00;;;1.70;92.90;;;;;;5043020;28;20025;-72
2022/01/18 03:55:29;;;;;;;8.20;1.95;;;1.60;92.90;;;;;;5049423;28;20024;-71
2022/01/18 03:57:54;;;;;;;14.13;2.17;;;1.60;93.00;;;;;;5054424;28;20012;-71
2022/01/18 04:00:25;;;;;;;16.48;2.03;;;1.60;93.00;;;;;;5054099;28;20758;-71
2022/01/18 04:02:52;;;;;;;9.90;2.25;;;1.60;93.00;;;;;;5057212;28;20037;-71
2022/01/18 04:05:19;;;;;;;12.73;2.70;;;1.60;92.90;;;;;;5048390;28;20036;-71
2022/01/18 04:07:45;;;;;;;13.95;2.42;;;1.60;92.90;;;;;;5043225;28;20052;-70
2022/01/18 04:10:11;;;;;;;8.90;2.40;;;1.60;92.90;;;;;;5051088;28;20601;-70
2022/01/18 04:12:37;;;;;;;14.30;2.67;;;1.60;92.80;;;;;;5065690;28;20032;-70
2022/01/18 04:15:06;;;;;;;17.13;3.28;;;1.50;92.90;;;;;;5047253;28;20021;-70
2022/01/18 04:28:28;;;;;;;10.52;2.50;;;1.60;92.90;;;;;;5056122;28;20051;-70
2022/01/18 04:30:53;;;;;;;9.38;1.95;;;1.60;92.80;;;;;;5068245;28;20047;-70
2022/01/18 04:33:19;;;;;;;14.35;2.55;;;1.70;93.00;;;;;;5057381;28;20025;-70
2022/01/18 04:35:46;;;;;;;16.75;2.42;;;1.70;93.10;;;;;;5050538;28;20044;-70
2022/01/18 04:38:12;;;;;;;8.98;2.63;;;1.70;93.00;;;;;;5050498;28;20089;-70
2022/01/18 04:40:41;;;;;;;14.32;1.85;;;1.70;93.10;;;;;;5062264;28;20028;-70
2022/01/18 04:43:42;;;;;;;12.90;2.15;;;1.80;93.20;;;;;;5055588;28;20409;-70
2022/01/18 04:48:53;;;;;;;14.85;2.50;;;1.90;93.10;;;;;;5053902;28;20534;-70
2022/01/18 04:51:19;;;;;;;10.43;2.30;;;1.90;93.00;;;;;;5047144;28;20033;-70
2022/01/18 04:53:55;;;;;;;7.53;2.20;;;2.00;93.10;;;;;;5059710;28;20066;-70
2022/01/18 04:59:17;;;;;;;13.70;2.85;;;2.20;93.00;;;;;;5024109;28;20049;-71
2022/01/18 05:01:46;;;;;;;6.47;1.63;;;2.20;92.90;;;;;;5052308;28;20019;-70
2022/01/18 05:04:12;;;;;;;12.85;2.25;;;2.30;92.90;;;;;;5053037;28;20056;-70
2022/01/18 05:06:38;;;;;;;12.98;1.92;;;2.30;92.80;;;;;;5047758;28;20067;-71
2022/01/18 05:09:08;;;;;;;10.15;1.90;;;2.40;92.90;;;;;;5053100;28;20053;-71
2022/01/18 05:11:41;;;;;;;12.57;2.05;;;2.40;92.80;;;;;;5070438;28;20033;-71
2022/01/18 05:14:21;;;;;;;13.55;2.30;;;2.50;92.80;;;;;;5050102;28;20029;-71
2022/01/18 05:19:47;;;;;;;10.30;2.00;;;2.60;92.80;;;;;;5049590;28;20148;-71
2022/01/18 05:24:57;;;;;;;8.95;1.60;;;2.70;93.10;;;;;;5066874;28;20035;-71
2022/01/18 05:27:23;;;;;;;7.28;1.90;;;2.70;93.10;;;;;;5052196;28;20029;-71
2022/01/18 05:29:49;;;;;;;18.23;2.55;;;2.80;93.10;;;;;;5058075;28;20729;-71
2022/01/18 05:32:15;;;;;;;9.90;2.20;;;2.80;93.00;;;;;;5056509;28;20680;-71
2022/01/18 05:34:44;;;;;;;9.80;2.17;;;2.90;92.90;;;;;;5051290;28;20109;-73
2022/01/18 05:37:10;;;;;;;9.57;2.10;;;2.90;92.90;;;;;;5053426;28;20032;-73
2022/01/18 05:39:36;;;;;;;12.13;2.17;;;3.00;92.90;;;;;;5053523;28;20649;-73
2022/01/18 05:42:02;;;;;;;11.88;2.28;;;3.10;92.70;;;;;;5052558;28;20044;-73
2022/01/18 05:44:27;;;;;;;10.50;1.83;;;3.10;92.80;;;;;;5050361;28;20037;-73
2022/01/18 05:46:53;;;;;;;11.82;2.40;;;3.10;92.80;;;;;;5051235;28;20025;-74
2022/01/18 05:49:19;;;;;;;17.75;2.55;;;3.20;92.80;;;;;;5056781;28;20461;-73
2022/01/18 05:51:45;;;;;;;11.30;1.80;;;3.20;92.60;;;;;;5060003;28;20058;-73
2022/01/18 05:54:11;;;;;;;6.85;1.38;;;3.30;92.60;;;;;;5051278;28;20037;-73
2022/01/18 05:56:38;;;;;;;10.93;1.65;;;3.30;92.60;;;;;;5064542;28;20515;-73
2022/01/18 05:59:05;;;;;;;6.15;1.83;;;3.40;92.70;;;;;;5046246;28;20514;-73
2022/01/18 06:01:34;;;;;;;7.32;1.60;;;3.40;92.60;;;;;;5054067;28;20037;-73
2022/01/18 06:09:12;;;;;;;13.15;2.05;;;3.50;92.40;;;;;;5052126;28;20492;-73
2022/01/18 06:11:39;;;;;;;12.00;1.83;;;3.50;92.50;;;;;;5052104;28;20036;-73
2022/01/18 06:14:04;;;;;;;5.63;1.80;;;3.60;92.60;;;;;;5067097;28;20027;-74
2022/01/18 06:16:30;;;;;;;12.05;2.08;;;3.60;92.50;;;;;;5050902;28;20428;-73
2022/01/18 06:18:56;;;;;;;6.93;2.13;;;3.60;92.40;;;;;;5063564;28;20029;-73
2022/01/18 06:21:22;;;;;;;8.63;1.92;;;3.60;92.40;;;;;;5052633;28;20132;-73
2022/01/18 06:23:48;;;;;;;7.47;1.70;;;3.60;92.30;;;;;;5051430;28;20025;-73
2022/01/18 06:26:15;;;;;;;8.40;1.70;;;3.70;92.40;;;;;;5054063;28;20044;-74
2022/01/18 06:28:45;;;;;;;7.63;1.58;;;3.70;92.30;;;;;;5061805;28;20129;-73
2022/01/18 06:31:12;;;;;;;10.30;1.90;;;3.70;92.30;;;;;;5053670;28;20067;-73
2022/01/18 06:33:37;;;;;;;6.82;2.08;;;3.70;92.30;;;;;;5052446;28;20504;-73
2022/01/18 06:36:03;;;;;;;4.07;1.40;;;3.70;92.30;;;;;;5047146;28;20021;-73
2022/01/18 06:38:29;;;;;;;7.05;1.90;;;3.70;92.30;;;;;;5053425;28;20036;-73
2022/01/18 06:40:55;;;;;;;10.80;1.70;;;3.70;92.30;;;;;;5062636;28;20746;-72
2022/01/18 06:43:21;;;;;;;8.68;1.98;;;3.80;92.20;;;;;;5045350;28;20037;-73
2022/01/18 06:45:46;;;;;;;6.32;1.20;;;3.80;92.20;;;;;;5057080;28;20043;-74
2022/01/18 06:48:12;;;;;;;7.43;1.40;;;3.80;92.20;;;;;;5056085;28;20047;-73
2022/01/18 06:50:38;;;;;;;11.55;2.67;;;3.80;92.30;;;;;;5049206;28;20043;-73
2022/01/18 06:53:13;;;;;;;6.43;1.92;;;3.80;92.20;;;;;;5064477;28;20017;-74
2022/01/18 06:55:38;;;;;;;8.35;2.50;;;3.90;92.20;;;;;;5048687;28;20165;-74
2022/01/18 06:58:04;;;;;;;7.13;1.83;;;3.90;92.10;;;;;;5043190;28;20146;-73
2022/01/18 07:00:30;;;;;;;13.75;1.67;;;3.80;92.20;;;;;;5059648;28;20028;-74
2022/01/18 07:02:55;;;;;;;12.07;2.15;;;3.80;92.20;;;;;;5045503;28;20717;-74
2022/01/18 07:05:21;;;;;;;6.75;2.30;;;3.80;92.30;;;;;;5054681;28;20036;-74
2022/01/18 07:07:47;;;;;;;10.07;1.83;;;3.90;92.30;;;;;;5054226;28;20036;-74
2022/01/18 07:10:13;;;;;;;7.72;1.67;;;3.90;92.30;;;;;;5060040;28;20622;-74
2022/01/18 07:12:39;;;;;;;8.25;2.03;;;3.90;92.20;;;;;;5050429;28;20830;-74
2022/01/18 07:15:06;;;;;;;7.38;1.50;;;4.00;92.20;;;;;;5050268;28;20028;-74
2022/01/18 07:17:37;;;;;;;9.00;1.95;;;4.00;92.30;;;;;;5051523;28;20041;-74
2022/01/18 07:20:04;;;;;;;8.40;1.63;;;4.00;92.30;;;;;;5050709;28;20037;-74
2022/01/18 07:22:30;;;;;;;14.05;1.67;;;4.00;92.30;;;;;;5045442;28;20029;-74
2022/01/18 07:24:58;;;;;;;10.30;2.05;;;4.10;92.10;;;;;;5048547;28;20037;-74
2022/01/18 07:27:24;;;;;;;13.27;1.58;;;4.10;92.00;;;;;;5050129;28;20045;-73
2022/01/18 07:29:50;;;;;;;13.63;2.47;;;4.10;92.00;;;;;;5050478;28;20047;-74
2022/01/18 07:32:16;;;;;;;11.60;1.60;;;4.20;92.00;;;;;;5050937;28;20025;-74
2022/01/18 07:34:53;;;;;;;7.20;1.48;;;4.20;91.80;;;;;;5055998;28;20127;-74
2022/01/18 07:37:20;;;;;;;6.03;1.25;;;4.20;91.80;;;;;;5043653;28;20033;-73
2022/01/18 07:39:48;;;;;;;5.28;1.40;;;4.20;91.70;;;;;;5044419;28;20036;-73
2022/01/18 07:42:15;;;;;;;9.65;2.13;;;4.20;91.80;;;;;;5051702;28;20078;-73
2022/01/18 07:44:41;;;;;;;9.80;1.92;;;4.30;91.80;;;;;;5048865;28;20047;-74
2022/01/18 07:47:06;;;;;;;7.80;2.35;;;4.30;91.90;;;;;;5048142;28;20037;-73
2022/01/18 07:49:32;;;;;;;12.25;1.85;;;4.30;91.80;;;;;;5052151;28;20809;-73
2022/01/18 07:51:58;;;;;;;11.68;1.95;;;4.40;91.80;;;;;;5042910;28;20025;-73
2022/01/18 07:54:23;;;;;;;10.32;1.92;;;4.40;91.90;;;;;;5051154;28;20028;-68
2022/01/18 07:56:49;;;;;;;5.07;1.52;;;4.40;91.90;;;;;;5051973;28;20655;-74
2022/01/18 07:59:15;;;;;;;6.35;1.40;;;4.40;91.90;;;;;;5056534;28;20542;-76
2022/01/18 08:01:42;;;;;;;13.23;2.10;;;4.50;91.80;;;;;;5054994;28;20468;-75
2022/01/18 08:04:08;;;;;;;8.27;1.95;;;4.50;91.80;;;;;;5057319;28;20037;-76
2022/01/18 08:06:34;;;;;;;9.63;1.70;;;4.50;91.90;;;;;;5051183;28;20043;-76
2022/01/18 08:08:59;;;;;;;9.98;1.92;;;4.60;91.80;;;;;;5054610;28;20060;-71
2022/01/18 08:11:26;;;;;;;8.15;1.73;;;4.60;91.60;;;;;;5048377;28;20029;-71
2022/01/18 08:13:52;;;;;;;3.83;1.42;;;4.60;91.70;;;;;;5049941;28;20395;-75
2022/01/18 08:16:23;;;;;;;7.57;2.20;;;4.60;91.60;;;;;;5052520;28;20021;-73
2022/01/18 08:18:53;;;;;;;5.50;1.48;;;4.70;91.50;;;;;;5051124;28;20123;-76
2022/01/18 08:21:20;;;;;;;7.30;1.13;;;4.70;91.50;;;;;;5053119;28;20056;-74
2022/01/18 08:23:46;;;;;;;7.10;1.95;;;4.80;91.40;;;;;;5054005;28;20040;-74
2022/01/18 08:26:12;;;;;;;5.63;1.48;;;4.80;91.40;;;;;;5051690;28;20040;-76
2022/01/18 08:28:37;;;;;;;7.32;1.25;;;4.90;91.40;;;;;;5057336;28;20032;-74
2022/01/18 08:31:04;;;;;;;8.95;2.65;;;4.90;91.50;;;;;;5052190;28;20055;-74
2022/01/18 08:33:33;;;;;;;7.75;1.50;;;4.90;91.50;;;;;;5051043;28;20519;-68
2022/01/18 08:36:00;;;;;;;7.57;2.10;;;5.00;91.40;;;;;;5051272;28;20856;-76
2022/01/18 08:38:27;;;;;;;5.28;1.65;;;5.10;91.50;;;;;;5055292;28;20111;-74
2022/01/18 08:40:54;;;;;;;5.85;1.58;;;5.10;91.50;;;;;;5052373;28;20028;-74
2022/01/18 08:43:20;;;;;;;9.23;1.58;;;5.20;91.40;;;;;;5054330;28;20147;-74
2022/01/18 08:45:47;;;;;;;10.52;2.10;;;5.20;91.50;;;;;;5049733;28;20062;-73
2022/01/18 08:48:13;;;;;;;7.20;1.65;;;5.30;91.40;;;;;;5050371;28;20481;-73
2022/01/18 08:50:39;;;;;;;7.97;2.03;;;5.40;91.40;;;;;;5054744;28;20032;-74
2022/01/18 08:53:04;;;;;;;12.75;1.98;;;5.40;91.20;;;;;;5067343;28;20029;-75
2022/01/18 08:55:33;;;;;;;15.48;2.13;;;5.50;91.10;;;;;;5053865;28;20072;-71
2022/01/18 08:57:58;;;;;;;7.70;1.13;;;5.60;91.00;;;;;;5053375;28;20033;-72
2022/01/18 09:00:24;;;;;;;3.72;1.60;;;5.60;91.00;;;;;;5053965;28;20036;-74
2022/01/18 09:02:50;;;;;;;6.70;1.50;;;5.70;91.10;;;;;;5050834;28;20057;-73
2022/01/18 09:05:16;;;;;;;5.93;1.70;;;5.80;91.10;;;;;;5051478;28;20032;-74
2022/01/18 09:07:42;;;;;;;4.55;1.15;;;5.90;91.00;;;;;;5063152;28;20068;-72
2022/01/18 09:10:10;;;;;;;7.82;1.73;;;5.90;90.90;;;;;;5054137;28;20538;-74
2022/01/18 09:12:37;;;;;;;7.25;2.00;;;6.00;90.90;;;;;;5052218;28;20025;-73
2022/01/18 09:15:06;;;;;;;9.82;2.17;;;6.10;90.90;;;;;;5071541;28;20676;-72
2022/01/18 09:17:37;;;;;;;6.80;1.50;;;6.30;90.80;;;;;;5048355;28;20097;-73
2022/01/18 09:20:06;;;;;;;8.15;1.95;;;6.30;90.50;;;;;;5069412;28;20035;-73
2022/01/18 09:22:38;;;;;;;6.88;1.63;;;6.40;90.30;;;;;;5052076;28;20818;-76
2022/01/18 09:25:08;;;;;;;6.40;1.60;;;6.50;90.10;;;;;;5054097;28;20146;-76
2022/01/18 09:27:34;;;;;;;8.68;1.88;;;6.60;89.90;;;;;;5054220;28;20041;-74
2022/01/18 09:30:00;;;;;;;9.48;2.05;;;6.60;89.60;;;;;;5050575;28;20127;-75
2022/01/18 09:32:26;;;;;;;8.77;1.73;;;6.60;89.20;;;;;;5050483;28;20119;-74
2022/01/18 09:34:52;;;;;;;11.95;2.08;;;6.60;88.80;;;;;;5055737;28;20076;-72
2022/01/18 09:37:18;;;;;;;7.78;1.55;;;6.60;88.90;;;;;;5045449;28;20025;-74
2022/01/18 09:39:44;;;;;;;9.77;2.00;;;6.80;89.30;;;;;;5053383;28;20024;-72
2022/01/18 09:42:12;;;;;;;4.82;2.15;;;7.10;87.90;;;;;;5045765;28;20021;-74
2022/01/18 09:44:39;;;;;;;10.65;2.50;;;7.40;87.30;;;;;;5048729;28;20037;-73
2022/01/18 09:47:05;;;;;;;5.75;1.80;;;7.80;85.80;;;;;;5049602;28;20032;-73
2022/01/18 09:49:32;;;;;;;12.23;2.42;;;8.20;83.20;;;;;;5048938;28;20036;-73
2022/01/18 09:51:58;;;;;;;8.40;2.00;;;8.30;81.90;;;;;;5054047;28;20966;-72
2022/01/18 09:54:24;;;;;;;9.07;1.92;;;8.10;81.10;;;;;;5052557;28;20025;-73
2022/01/18 09:56:50;;;;;;;7.97;1.88;;;8.00;81.80;;;;;;5046955;28;20051;-73
2022/01/18 09:59:16;;;;;;;8.35;1.80;;;7.90;83.00;;;;;;5050852;28;20605;-71
2022/01/18 10:01:42;;;;;;;8.80;2.10;;;7.80;82.60;;;;;;5049854;28;20582;-73
2022/01/18 10:04:17;;;;;;;12.73;2.63;;;7.70;83.10;;;;;;5048363;28;20021;-74
2022/01/18 10:06:46;;;;;;;4.70;1.20;;;7.80;83.60;;;;;;5045664;28;20040;-72
2022/01/18 10:09:12;;;;;;;8.68;1.85;;;8.30;82.50;;;;;;5049041;28;20032;-73
2022/01/18 10:12:12;;;;;;;10.95;2.03;;;8.50;81.10;;;;;;5043979;28;20118;-73
2022/01/18 10:14:51;;;;;;;8.32;1.85;;;8.60;80.40;;;;;;5054291;28;20035;-73
2022/01/18 10:17:33;;;;;;;10.38;1.65;;;8.70;80.70;;;;;;5049085;28;20044;-72
2022/01/18 10:20:16;;;;;;;7.18;1.40;;;8.70;80.20;;;;;;5049272;28;20035;-73
2022/01/18 10:22:49;;;;;;;11.48;1.40;;;8.60;79.70;;;;;;5065476;28;20102;-70
2022/01/18 10:25:21;;;;;;;10.13;2.20;;;8.50;80.50;;;;;;5050799;28;20044;-72
2022/01/18 10:27:49;;;;;;;7.35;1.50;;;8.40;80.90;;;;;;5051233;28;20496;-73
2022/01/18 10:30:25;;;;;;;11.13;2.03;;;8.30;81.40;;;;;;5052391;28;20136;-73
2022/01/18 10:33:14;;;;;;;7.97;1.92;;;8.20;81.40;;;;;;5051177;28;20829;-73
2022/01/18 10:36:07;;;;;;;9.73;1.65;;;8.20;82.10;;;;;;5066810;28;20080;-73
2022/01/18 10:38:33;;;;;;;4.53;1.40;;;8.10;81.20;;;;;;5047538;28;20036;-74
2022/01/18 10:41:28;;;;;;;14.60;3.03;;;8.10;81.30;;;;;;5049301;28;20024;-70
2022/01/18 10:44:15;;;;;;;8.20;1.40;;;8.20;81.50;;;;;;5053657;28;20139;-71
2022/01/18 10:46:44;;;;;;;;;;;8.20;81.80;;;;;;5061627;28;20037;-71
2022/01/18 10:49:11;;;;;;;10.18;1.73;;;8.30;82.00;;;;;;5057526;28;19913;-70
2022/01/18 10:51:40;;;;;;;8.18;1.55;;;8.30;82.10;;;;;;5050032;28;20036;-71
2022/01/18 10:54:09;;;;;;;9.32;1.83;;;8.30;81.40;;;;;;5053193;28;20029;-71
2022/01/18 10:56:44;;;;;;;7.20;1.30;;;8.30;81.60;;;;;;5044368;28;20688;-68
2022/01/18 10:59:24;;;;;;;3.30;1.15;;;8.30;82.40;;;;;;5054041;28;20033;-72
2022/01/18 11:02:10;;;;;;;5.72;1.23;;;8.40;82.40;;;;;;5049544;28;20119;-74
2022/01/18 11:04:38;;;;;;;4.93;2.67;;;8.40;82.20;;;;;;5029886;28;20051;-73
2022/01/18 11:07:05;;;;;;;8.27;1.40;;;8.50;82.00;;;;;;5066449;28;20035;-72
2022/01/18 11:09:32;;;;;;;6.20;1.77;;;8.50;80.90;;;;;;5049797;28;20231;-72
2022/01/18 11:11:58;;;;;;;7.95;1.92;;;8.50;80.80;;;;;;5047493;28;20477;-72
2022/01/18 11:14:25;;;;;;;3.03;1.20;;;8.50;80.90;;;;;;5062732;28;20036;-73
2022/01/18 11:16:56;;;;;;;2.90;1.35;;;8.40;79.60;;;;;;5046987;28;20579;-71
2022/01/18 11:21:53;;;;;;;8.20;1.70;;;8.40;81.20;;;;;;5046473;28;20036;-64
2022/01/18 11:24:20;;;;;;;6.75;1.33;;;8.40;80.90;;;;;;5051556;28;20048;-72
2022/01/18 11:26:46;;;;;;;6.30;1.25;;;8.50;80.40;;;;;;5056172;28;20184;-71
2022/01/18 11:29:18;;;;;;;7.20;1.27;;;8.50;80.50;;;;;;5053528;28;20035;-74
2022/01/18 11:31:48;;;;;;;7.93;1.10;;;8.60;80.80;;;;;;5052707;28;20101;-75
2022/01/18 11:34:32;;;;;;;7.47;1.55;;;8.60;80.70;;;;;;5054895;28;20068;-72
2022/01/18 11:37:08;;;;;;;4.45;1.30;;;8.60;80.40;;;;;;5052043;28;20032;-72
2022/01/18 11:39:34;;;;;;;5.93;1.60;;;8.50;80.80;;;;;;5054371;28;20044;-72
2022/01/18 11:42:13;;;;;;;6.55;1.85;;;8.50;80.50;;;;;;5054749;28;20024;-69
2022/01/18 11:44:39;;;;;;;6.70;1.58;;;8.50;80.60;;;;;;5055284;28;20032;-71
2022/01/18 11:47:06;;;;;;;9.25;2.22;;;8.50;80.40;;;;;;5055297;28;20992;-71
2022/01/18 11:49:33;;;;;;;7.68;1.95;;;8.50;80.00;;;;;;5057296;28;20060;-71
2022/01/18 11:52:10;;;;;;;7.70;1.50;;;8.50;80.30;;;;;;5053481;28;20037;-70
2022/01/18 11:57:24;;;;;;;3.67;1.08;;;8.60;80.30;;;;;;5048186;28;20116;-70
2022/01/18 11:59:51;;;;;;;5.88;1.45;;;8.50;80.30;;;;;;5071783;28;20036;-70
2022/01/18 12:02:26;;;;;;;3.63;1.15;;;8.60;80.50;;;;;;5051741;28;20090;-70
2022/01/18 12:04:54;;;;;;;7.30;1.70;;;8.60;80.80;;;;;;5058424;28;20208;-71
2022/01/18 12:07:36;;;;;;;5.30;1.05;;;8.60;81.20;;;;;;5061696;28;20040;-70
2022/01/18 12:10:29;;;;;;;5.95;1.50;;;8.60;81.10;;;;;;5052509;28;20043;-70
2022/01/18 12:12:58;;;;;;;5.07;1.40;;;8.60;81.00;;;;;;5066451;28;20033;-70
2022/01/18 12:15:23;;;;;;;4.68;1.63;;;8.60;80.80;;;;;;5051850;28;20047;-69
2022/01/18 12:17:53;;;;;;;11.02;2.85;;;8.60;80.70;;;;;;5054367;28;20743;-70
2022/01/18 12:20:42;;;;;;;7.30;2.15;;;8.60;80.70;;;;;;5052665;28;20032;-69
2022/01/18 12:23:13;;;;;;;7.05;1.80;;;8.60;81.20;;;;;;5054739;28;20039;-70
2022/01/18 12:25:56;;;;;;;8.10;1.58;;;8.60;81.00;;;;;;5053277;28;20055;-69
2022/01/18 12:34:34;;;;;;;7.68;2.05;;;8.60;82.10;;;;;;5050190;28;20028;-71
2022/01/18 12:37:10;;;;;;;9.88;2.67;;;8.50;81.90;;;;;;5054456;28;20025;-70
2022/01/18 12:45:25;;;;;;;6.85;1.73;;;8.50;81.90;;;;;;5064214;28;20056;-71
2022/01/18 12:47:59;;;;;;;7.38;2.30;;;8.40;82.30;;;;;;5048259;28;20035;-70
2022/01/18 12:50:49;;;;;;;16.42;4.80;;;8.40;82.60;;;;;;5055852;28;20040;-70
2022/01/18 12:53:20;;;;;;;14.40;5.90;;;8.40;82.50;;;;;;5053500;28;20045;-70
2022/01/18 12:55:47;;;;;;;10.27;4.18;;;8.50;82.70;;;;;;5057680;28;20303;-70
2022/01/18 12:58:30;;;;;;;11.63;3.33;;;8.50;82.30;;;;;;5056777;28;20937;-70
2022/01/18 13:00:59;;;;;;;9.93;2.80;;;8.40;82.40;;;;;;5056833;28;20393;-71
2022/01/18 13:03:29;;;;;;;8.75;3.25;;;8.40;82.60;;;;;;5064926;28;20136;-71
2022/01/18 13:05:59;;;;;;;9.85;2.78;;;8.40;82.80;;;;;;5053625;28;20027;-70
2022/01/18 13:08:37;;;;;;;6.57;2.97;;;8.40;83.10;;;;;;5059263;28;20432;-71
2022/01/18 13:11:03;;;;;;;8.82;2.53;;;8.40;82.30;;;;;;5054520;28;20079;-71
2022/01/18 13:13:31;;;;;;;3.83;1.98;;;8.40;82.30;;;;;;5054243;28;20117;-70
2022/01/18 13:26:36;;;;;;;9.93;2.75;;;8.30;83.50;;;;;;5062395;28;20037;-70
2022/01/18 13:29:24;;;;;;;7.55;1.95;;;8.30;83.70;;;;;;5048632;28;20045;-69
2022/01/18 13:32:04;;;;;;;9.48;1.95;;;8.30;84.00;;;;;;5058086;28;20377;-69
2022/01/18 13:34:36;;;;;;;9.45;2.10;;;8.30;84.30;;;;;;5058468;28;20028;-69
2022/01/18 13:37:04;;;;;;;4.65;1.77;;;8.30;84.40;;;;;;5049597;28;20083;-70
2022/01/18 13:39:51;;;;;;;6.07;2.35;;;8.30;84.30;;;;;;5050409;28;20035;-69
2022/01/18 13:42:31;;;;;;;8.52;2.40;;;8.30;84.30;;;;;;5048996;28;20037;-69
2022/01/18 13:45:19;;;;;;;7.13;2.03;;;8.30;84.20;;;;;;5053521;28;20488;-69
2022/01/18 13:47:49;;;;;;;2.70;1.40;;;8.30;83.80;;;;;;5055049;28;20036;-69
2022/01/18 13:50:43;;;;;;;7.47;1.80;;;8.20;83.70;;;;;;5054475;28;20040;-69
2022/01/18 13:53:22;;;;;;;3.58;0.98;;;8.20;84.00;;;;;;5050860;28;20029;-66
2022/01/18 13:55:58;;;;;;;3.80;1.30;;;8.20;84.20;;;;;;5052561;28;20400;-69
2022/01/18 13:58:33;;;;;;;6.90;1.17;;;8.20;84.70;;;;;;5065871;28;20059;-69
2022/01/18 14:01:17;;;;;;;7.07;1.30;;;8.10;84.60;;;;;;5064950;28;20036;-68
2022/01/18 14:03:52;;;;;;;6.75;2.13;;;8.10;84.30;;;;;;5050043;28;20028;-68
2022/01/18 14:06:19;;;;;;;4.80;1.42;;;8.10;84.30;;;;;;5054212;28;20684;-68
2022/01/18 14:08:51;;;;;;;6.20;1.30;;;8.10;83.80;;;;;;5052315;28;20028;-68
2022/01/18 14:11:19;;;;;;;4.88;1.42;;;8.10;84.40;;;;;;5054128;28;20480;-69
2022/01/18 14:13:46;;;;;;;7.28;1.30;;;8.00;84.70;;;;;;5054015;28;20021;-70
2022/01/18 14:16:32;;;;;;;6.57;1.85;;;8.10;85.00;;;;;;5063568;28;20044;-69
2022/01/18 14:19:08;;;;;;;5.53;1.60;;;8.10;85.20;;;;;;5047848;28;20067;-69
2022/01/18 14:21:49;;;;;;;6.07;1.50;;;8.10;85.00;;;;;;5050237;28;20037;-68
2022/01/18 14:24:21;;;;;;;3.47;1.20;;;8.10;85.20;;;;;;5059550;28;20108;-69
2022/01/18 14:26:53;;;;;;;2.78;0.95;;;8.10;85.40;;;;;;5051275;28;20033;-68
2022/01/18 14:29:20;;;;;;;6.78;1.20;;;8.10;85.40;;;;;;5052136;28;20064;-68
2022/01/18 14:32:05;;;;;;;4.50;1.27;;;8.10;85.50;;;;;;5050309;28;20032;-69
2022/01/18 14:34:36;;;;;;;4.07;1.30;;;8.10;85.50;;;;;;5055148;28;20437;-68
2022/01/18 14:37:03;;;;;;;1.85;1.10;;;8.10;85.80;;;;;;5051603;28;20024;-67
2022/01/18 14:39:29;;;;;;;2.80;1.10;;;8.00;85.80;;;;;;5044501;28;20045;-69
2022/01/18 14:42:04;;;;;;;4.25;1.33;;;8.00;86.00;;;;;;5055136;28;20032;-68
2022/01/18 14:44:59;;;;;;;2.90;1.00;;;8.10;86.00;;;;;;5053342;28;20098;-69
2022/01/18 14:47:25;;;;;;;4.65;1.00;;;8.10;86.10;;;;;;5055213;28;20147;-68
2022/01/18 14:50:15;;;;;;;3.00;1.13;;;8.00;86.10;;;;;;5053465;28;20043;-69